Time;durP1;ratioP1;P1;durP2;ratioP2;P2;SDS_P1;SDS_P2;PMS_P1;PMS_P2;Temp;Humidity;BMP_temperature;BMP_pressure;BME280_temperature;BME280_humidity;BME280_pressure;Samples;Min_cycle;Max_cycle;Signal;HPM_P1;HPM_P2
2023/10/16 00:02:22;;;;;;;5.50;3.70;;;7.10;99.90;;;;;;5128271;27;20029;-36
2023/10/16 00:04:48;;;;;;;3.80;3.40;;;7.10;99.90;;;;;;5097363;27;20432;-36
2023/10/16 00:07:20;;;;;;;4.53;3.33;;;7.10;99.90;;;;;;5137535;27;20063;-35
2023/10/16 00:09:47;;;;;;;3.72;3.15;;;7.20;99.90;;;;;;5078938;27;20425;-36
2023/10/16 00:12:15;;;;;;;3.97;3.55;;;7.30;99.90;;;;;;5136603;27;20097;-36
2023/10/16 00:14:44;;;;;;;4.95;3.92;;;7.30;99.90;;;;;;5086610;27;20027;-37
2023/10/16 00:17:09;;;;;;;4.45;3.63;;;7.30;99.90;;;;;;5139032;27;20055;-36
2023/10/16 00:19:47;;;;;;;3.40;3.10;;;7.40;99.90;;;;;;5084548;27;20160;-35
2023/10/16 00:22:18;;;;;;;3.47;3.05;;;7.40;99.90;;;;;;5143695;27;20035;-36
2023/10/16 00:24:47;;;;;;;5.22;3.28;;;7.40;99.90;;;;;;5083515;27;20561;-35
2023/10/16 00:27:16;;;;;;;4.00;3.00;;;7.40;99.90;;;;;;5145893;27;20095;-37
2023/10/16 00:29:45;;;;;;;3.70;3.40;;;7.30;99.90;;;;;;5082663;27;20066;-36
2023/10/16 00:32:11;;;;;;;3.70;3.40;;;7.30;99.90;;;;;;5148472;27;20034;-36
2023/10/16 00:34:38;;;;;;;3.72;3.17;;;7.30;99.90;;;;;;5082340;27;20529;-35
2023/10/16 00:37:10;;;;;;;5.72;3.17;;;7.30;99.90;;;;;;5148921;27;20059;-36
2023/10/16 00:39:37;;;;;;;3.65;3.28;;;7.30;99.90;;;;;;5088044;27;20029;-35
2023/10/16 00:42:07;;;;;;;4.95;3.20;;;7.30;99.90;;;;;;5145031;27;20030;-35
2023/10/16 00:44:33;;;;;;;3.42;3.13;;;7.20;99.90;;;;;;5097243;27;20029;-35
2023/10/16 00:47:07;;;;;;;3.63;3.22;;;7.20;99.90;;;;;;5135470;27;20444;-35
2023/10/16 00:49:34;;;;;;;3.47;3.00;;;7.20;99.90;;;;;;5104467;27;20089;-37
2023/10/16 00:52:06;;;;;;;3.78;3.00;;;7.20;99.90;;;;;;5128631;27;20044;-34
2023/10/16 00:54:39;;;;;;;3.47;3.05;;;7.10;99.90;;;;;;5112629;27;20037;-36
2023/10/16 00:57:07;;;;;;;;;;;7.10;99.90;;;;;;5082558;27;20025;-35
2023/10/16 00:59:35;;;;;;;3.70;3.22;;;7.10;99.90;;;;;;5073397;27;20022;-35
2023/10/16 01:02:08;;;;;;;3.90;3.10;;;7.00;99.90;;;;;;5077367;27;20037;-35
2023/10/16 01:04:35;;;;;;;3.92;3.20;;;7.00;99.90;;;;;;5066631;27;20125;-35
2023/10/16 01:07:05;;;;;;;4.82;3.20;;;7.00;99.90;;;;;;5085677;27;20044;-35
2023/10/16 01:09:35;;;;;;;3.83;3.10;;;7.00;99.90;;;;;;5056143;27;20563;-36
2023/10/16 01:12:06;;;;;;;4.32;3.40;;;7.00;99.90;;;;;;5092867;27;20036;-35
2023/10/16 01:14:35;;;;;;;5.32;3.60;;;6.90;99.90;;;;;;5050681;27;20037;-35
2023/10/16 01:17:08;;;;;;;3.60;3.28;;;6.90;99.90;;;;;;5070245;27;20377;-35
2023/10/16 01:19:36;;;;;;;4.30;3.22;;;6.90;99.90;;;;;;5117290;27;20022;-35
2023/10/16 01:22:02;;;;;;;4.43;3.65;;;6.90;99.90;;;;;;5101563;27;20115;-36
2023/10/16 01:24:31;;;;;;;3.40;3.10;;;6.90;99.90;;;;;;5050291;27;20025;-38
2023/10/16 01:27:14;;;;;;;3.58;3.03;;;6.90;99.90;;;;;;5102137;27;20029;-35
2023/10/16 01:29:42;;;;;;;3.40;3.10;;;6.90;99.90;;;;;;5051725;27;20543;-36
2023/10/16 01:32:13;;;;;;;3.53;3.17;;;6.90;99.90;;;;;;5089367;27;20018;-35
2023/10/16 01:34:41;;;;;;;5.60;3.22;;;6.90;99.90;;;;;;5147138;27;20759;-36
2023/10/16 01:37:08;;;;;;;3.83;3.33;;;6.90;99.90;;;;;;5082326;27;20038;-35
2023/10/16 01:39:49;;;;;;;3.35;3.00;;;7.00;99.90;;;;;;5148249;27;20381;-36
2023/10/16 01:42:18;;;;;;;3.95;3.20;;;7.00;99.90;;;;;;5081374;27;20534;-36
2023/10/16 01:44:43;;;;;;;3.63;3.10;;;7.10;99.90;;;;;;5147904;27;20019;-36
2023/10/16 01:47:13;;;;;;;3.30;3.00;;;7.10;99.90;;;;;;5081414;27;20476;-35
2023/10/16 01:49:39;;;;;;;4.00;3.10;;;7.10;99.90;;;;;;5147956;27;20043;-35
2023/10/16 01:52:08;;;;;;;4.13;3.00;;;7.20;99.90;;;;;;5082555;27;20029;-36
2023/10/16 01:54:37;;;;;;;3.65;3.00;;;7.20;99.90;;;;;;5023134;28;20075;-36
2023/10/16 01:57:10;;;;;;;2.90;2.70;;;7.20;99.90;;;;;;5054869;27;20049;-35
2023/10/16 01:59:39;;;;;;;4.15;2.83;;;7.20;99.90;;;;;;5042209;28;20802;-35
2023/10/16 02:02:09;;;;;;;4.07;2.80;;;7.20;99.90;;;;;;5073074;27;20056;-35
2023/10/16 02:04:38;;;;;;;3.60;3.08;;;7.20;99.90;;;;;;5133619;27;20137;-35
2023/10/16 02:07:06;;;;;;;3.40;3.10;;;7.20;99.90;;;;;;5106546;27;20025;-34
2023/10/16 02:09:36;;;;;;;4.55;3.33;;;7.20;99.90;;;;;;5124299;27;20475;-35
2023/10/16 02:12:10;;;;;;;3.70;3.10;;;7.20;99.90;;;;;;5113947;27;20023;-36
2023/10/16 02:14:42;;;;;;;3.35;2.83;;;7.30;99.90;;;;;;5120066;27;20019;-35
2023/10/16 02:17:14;;;;;;;3.00;2.80;;;7.30;99.90;;;;;;5118162;27;20772;-35
2023/10/16 02:19:45;;;;;;;3.23;2.93;;;7.40;99.90;;;;;;5114493;27;20037;-36
2023/10/16 02:22:11;;;;;;;3.42;2.80;;;7.40;99.90;;;;;;5123342;27;20347;-36
2023/10/16 02:24:37;;;;;;;2.60;2.40;;;7.40;99.90;;;;;;5105493;27;20088;-35
2023/10/16 02:27:09;;;;;;;4.18;2.63;;;7.50;99.90;;;;;;5135217;27;20407;-36
2023/10/16 02:29:49;;;;;;;3.25;2.47;;;7.40;99.90;;;;;;5097200;27;20039;-36
2023/10/16 02:32:18;;;;;;;2.75;2.55;;;7.40;99.90;;;;;;5135155;27;20031;-36
2023/10/16 02:34:43;;;;;;;3.53;2.60;;;7.40;99.90;;;;;;5094396;27;20029;-36
2023/10/16 02:37:11;;;;;;;3.42;2.85;;;7.40;99.90;;;;;;5139236;27;20045;-36
2023/10/16 02:39:37;;;;;;;4.25;2.63;;;7.40;99.90;;;;;;5087913;27;20031;-35
2023/10/16 02:42:07;;;;;;;3.72;3.08;;;7.50;99.90;;;;;;5139210;27;20019;-35
2023/10/16 02:44:38;;;;;;;3.15;2.85;;;7.50;99.90;;;;;;5088206;27;20080;-35
2023/10/16 02:47:08;;;;;;;3.17;2.88;;;7.60;99.90;;;;;;5144872;27;20446;-35
2023/10/16 02:49:35;;;;;;;3.30;2.97;;;7.60;99.90;;;;;;5083497;27;20035;-37
2023/10/16 02:52:06;;;;;;;3.53;2.80;;;7.60;99.90;;;;;;5146663;27;20031;-36
2023/10/16 02:54:31;;;;;;;3.50;3.20;;;7.70;99.90;;;;;;5079754;27;20030;-37
2023/10/16 02:56:59;;;;;;;3.25;2.80;;;7.70;99.90;;;;;;5117614;27;20028;-35
2023/10/16 02:59:26;;;;;;;3.90;3.10;;;7.70;99.90;;;;;;5107178;27;20492;-36
2023/10/16 03:01:56;;;;;;;3.92;3.10;;;7.70;99.90;;;;;;5041500;28;20760;-36
2023/10/16 03:04:24;;;;;;;4.18;2.88;;;7.60;99.90;;;;;;5099718;27;20026;-35
2023/10/16 03:06:53;;;;;;;3.78;3.03;;;7.60;99.90;;;;;;5047195;27;20025;-36
2023/10/16 03:09:31;;;;;;;3.30;3.00;;;7.60;99.90;;;;;;5089030;27;20039;-35
2023/10/16 03:12:08;;;;;;;2.90;2.60;;;7.50;99.90;;;;;;5049434;27;20071;-36
2023/10/16 03:15:20;;;;;;;3.83;3.00;;;7.40;99.90;;;;;;5093818;27;20035;-36
2023/10/16 03:17:26;;;;;;;4.97;3.08;;;7.40;99.90;;;;;;5037412;27;20037;-35
2023/10/16 03:19:55;;;;;;;4.82;2.88;;;7.30;99.90;;;;;;5094560;27;20134;-35
2023/10/16 03:22:21;;;;;;;3.10;2.55;;;7.30;99.90;;;;;;5045812;27;20025;-35
2023/10/16 03:24:47;;;;;;;4.30;2.92;;;7.30;99.90;;;;;;5088165;27;20111;-35
2023/10/16 03:27:27;;;;;;;3.42;2.95;;;7.20;99.90;;;;;;5059974;27;20072;-35
2023/10/16 03:29:54;;;;;;;3.90;3.20;;;7.20;99.90;;;;;;5083793;27;20749;-35
2023/10/16 03:32:23;;;;;;;3.65;2.85;;;7.20;99.90;;;;;;5061799;27;20138;-35
2023/10/16 03:34:50;;;;;;;3.33;3.03;;;7.20;99.90;;;;;;5074089;27;20025;-35
2023/10/16 03:37:17;;;;;;;3.67;3.15;;;7.30;99.90;;;;;;5070939;27;20528;-35
2023/10/16 03:39:44;;;;;;;2.95;2.55;;;7.30;99.90;;;;;;5061988;27;20029;-35
2023/10/16 03:42:17;;;;;;;3.25;2.78;;;7.30;99.90;;;;;;5084362;27;20025;-35
2023/10/16 03:44:43;;;;;;;5.18;3.05;;;7.30;99.90;;;;;;5054069;27;20482;-35
2023/10/16 03:47:10;;;;;;;3.00;2.67;;;7.40;99.90;;;;;;5092200;27;20025;-36
2023/10/16 03:49:36;;;;;;;4.18;2.78;;;7.40;99.90;;;;;;5048520;27;20134;-35
2023/10/16 03:52:02;;;;;;;3.55;2.70;;;7.50;99.90;;;;;;5098536;27;20454;-36
2023/10/16 03:54:31;;;;;;;3.38;2.60;;;7.50;99.90;;;;;;5048203;27;20018;-36
2023/10/16 03:57:00;;;;;;;2.65;2.40;;;7.50;99.90;;;;;;5121725;27;20023;-36
2023/10/16 03:59:29;;;;;;;3.30;2.53;;;7.50;99.90;;;;;;5145216;27;20346;-35
2023/10/16 04:01:56;;;;;;;2.88;2.60;;;7.60;99.90;;;;;;5079869;27;20346;-36
2023/10/16 04:04:25;;;;;;;3.45;2.97;;;7.60;99.90;;;;;;5144501;27;20124;-35
2023/10/16 04:06:52;;;;;;;2.95;2.65;;;7.60;99.90;;;;;;5080162;27;20015;-35
2023/10/16 04:09:32;;;;;;;3.95;2.78;;;7.70;99.90;;;;;;5145020;27;20034;-35
2023/10/16 04:11:59;;;;;;;3.72;2.70;;;7.70;99.90;;;;;;5078479;27;20559;-36
2023/10/16 04:14:44;;;;;;;4.47;3.08;;;7.70;99.90;;;;;;5145776;27;20033;-36
2023/10/16 04:17:13;;;;;;;3.58;2.72;;;7.70;99.90;;;;;;5079056;27;20033;-36
2023/10/16 04:22:43;;;;;;;5.05;2.63;;;7.70;99.90;;;;;;5080703;27;20290;-35
2023/10/16 04:25:18;;;;;;;3.20;2.67;;;7.80;99.90;;;;;;5144155;27;20086;-40
2023/10/16 04:27:49;;;;;;;3.28;2.78;;;7.80;99.90;;;;;;5080095;27;20041;-35
2023/10/16 04:32:56;;;;;;;3.85;2.83;;;7.80;99.90;;;;;;5079121;27;20525;-35
2023/10/16 04:38:27;;;;;;;4.25;2.88;;;7.80;99.90;;;;;;5079315;27;20033;-36
2023/10/16 04:43:49;;;;;;;;;;;7.90;99.90;;;;;;5087083;27;20428;-36
2023/10/16 04:46:17;;;;;;;2.58;2.10;;;7.90;99.90;;;;;;5136460;27;20005;-37
2023/10/16 04:48:50;;;;;;;3.10;2.80;;;7.80;99.90;;;;;;5086342;27;20030;-36
2023/10/16 04:51:17;;;;;;;3.15;2.60;;;7.80;99.90;;;;;;5140979;27;20537;-35
2023/10/16 04:53:58;;;;;;;2.35;2.15;;;7.80;99.90;;;;;;5083000;27;20071;-36
2023/10/16 04:56:57;;;;;;;3.42;2.42;;;7.80;99.90;;;;;;5142560;27;20019;-36
2023/10/16 05:02:33;;;;;;;2.55;2.25;;;7.90;99.90;;;;;;5046620;27;20037;-35
2023/10/16 05:05:10;;;;;;;4.60;2.80;;;7.90;99.90;;;;;;5097011;27;20381;-36
2023/10/16 05:07:45;;;;;;;3.75;2.70;;;7.90;99.90;;;;;;5124765;27;20072;-36
2023/10/16 05:10:14;;;;;;;3.13;2.40;;;7.90;99.90;;;;;;5105668;27;20073;-35
2023/10/16 05:15:51;;;;;;;2.58;2.20;;;7.90;99.90;;;;;;5109696;27;20096;-36
2023/10/16 05:18:42;;;;;;;;;;;7.80;99.90;;;;;;5114657;27;20099;-36
2023/10/16 05:22:01;;;;;;;2.95;2.30;;;7.90;99.90;;;;;;5133432;27;19932;-36
2023/10/16 06:16:20;;;;;;;5.03;2.45;;;8.00;99.90;;;;;;5106070;27;20084;-36
2023/10/16 06:18:47;;;;;;;3.38;2.40;;;8.10;99.90;;;;;;5042003;28;20081;-37
2023/10/16 06:21:17;;;;;;;3.15;2.50;;;8.10;99.90;;;;;;5107859;27;20015;-37
2023/10/16 06:23:48;;;;;;;2.50;2.30;;;8.10;99.90;;;;;;5041696;28;20029;-36
2023/10/16 06:26:17;;;;;;;2.22;2.03;;;8.10;99.90;;;;;;5103632;27;20019;-36
2023/10/16 06:28:49;;;;;;;3.65;2.33;;;8.10;99.90;;;;;;5022436;28;20041;-36
2023/10/16 06:31:25;;;;;;;4.07;2.55;;;8.10;99.90;;;;;;5093381;27;20048;-36
2023/10/16 06:33:58;;;;;;;2.45;2.25;;;8.10;99.90;;;;;;5043135;27;20047;-35
2023/10/16 06:36:24;;;;;;;2.80;2.50;;;8.20;99.90;;;;;;5097411;27;20054;-35
2023/10/16 06:38:51;;;;;;;3.53;2.10;;;8.20;99.90;;;;;;5051163;27;20021;-35
2023/10/16 06:41:23;;;;;;;3.25;2.25;;;8.20;99.90;;;;;;5084702;27;20460;-35
2023/10/16 06:43:49;;;;;;;4.07;2.47;;;8.20;99.90;;;;;;5059473;27;20028;-36
2023/10/16 06:46:22;;;;;;;2.38;2.17;;;8.20;99.90;;;;;;5075402;27;20418;-36
2023/10/16 06:48:52;;;;;;;4.03;2.13;;;8.30;99.90;;;;;;5067462;27;20082;-36
2023/10/16 06:51:22;;;;;;;3.00;2.53;;;8.20;99.90;;;;;;5069560;27;20035;-35
2023/10/16 06:53:50;;;;;;;2.72;2.25;;;8.30;99.90;;;;;;5075156;27;20040;-35
2023/10/16 06:56:27;;;;;;;3.25;2.50;;;8.30;99.90;;;;;;5061373;27;20434;-34
2023/10/16 06:58:54;;;;;;;3.88;2.58;;;8.20;99.90;;;;;;5093387;27;20083;-36
2023/10/16 07:01:19;;;;;;;2.95;2.63;;;8.30;99.90;;;;;;5043183;27;20135;-34
2023/10/16 07:03:47;;;;;;;2.78;2.58;;;8.30;99.90;;;;;;5092726;27;20104;-36
2023/10/16 07:06:16;;;;;;;3.45;2.47;;;8.30;99.90;;;;;;5049063;27;20029;-36
2023/10/16 07:08:42;;;;;;;2.85;2.53;;;8.30;99.90;;;;;;5099302;27;20563;-37
2023/10/16 07:11:11;;;;;;;2.60;2.40;;;8.30;99.90;;;;;;5048835;27;20024;-37
2023/10/16 07:13:38;;;;;;;2.97;2.30;;;8.40;99.90;;;;;;5100049;27;20033;-37
2023/10/16 07:16:05;;;;;;;2.20;1.98;;;8.40;99.90;;;;;;5041220;27;20017;-37
2023/10/16 07:18:33;;;;;;;2.35;2.15;;;8.50;99.90;;;;;;5104799;27;20112;-35
2023/10/16 07:21:00;;;;;;;4.00;2.53;;;8.50;99.90;;;;;;5040200;28;20037;-35
2023/10/16 07:23:30;;;;;;;2.83;2.40;;;8.60;99.90;;;;;;5107148;27;20388;-35
2023/10/16 07:25:59;;;;;;;3.47;2.58;;;8.60;99.90;;;;;;5041855;28;20029;-35
2023/10/16 07:28:26;;;;;;;4.10;2.90;;;8.60;99.90;;;;;;5106207;27;20401;-36
2023/10/16 07:30:52;;;;;;;4.40;2.88;;;8.60;99.90;;;;;;5042381;28;20048;-35
2023/10/16 07:33:20;;;;;;;3.50;2.85;;;8.60;99.90;;;;;;5096995;27;20072;-35
2023/10/16 07:35:53;;;;;;;3.50;2.92;;;8.70;99.90;;;;;;5048008;27;20067;-38
2023/10/16 07:38:30;;;;;;;3.58;2.63;;;8.70;99.90;;;;;;5089796;27;20030;-36
2023/10/16 07:40:59;;;;;;;4.28;2.90;;;8.70;99.90;;;;;;5049606;27;20040;-35
2023/10/16 07:43:27;;;;;;;3.38;2.13;;;8.70;99.90;;;;;;5086049;27;20015;-35
2023/10/16 07:48:52;;;;;;;3.35;2.55;;;8.80;99.90;;;;;;5089633;27;20552;-36
2023/10/16 07:51:25;;;;;;;4.40;2.53;;;8.80;99.90;;;;;;5047656;27;20430;-35
2023/10/16 07:53:56;;;;;;;2.58;2.38;;;8.80;99.90;;;;;;5090975;27;20030;-35
2023/10/16 07:56:26;;;;;;;3.20;2.90;;;8.90;99.90;;;;;;5052134;27;20445;-35
2023/10/16 07:59:06;;;;;;;3.40;2.67;;;8.90;99.90;;;;;;5088507;27;20879;-34
2023/10/16 08:01:32;;;;;;;3.20;2.90;;;9.00;99.90;;;;;;5133281;27;20027;-35
2023/10/16 08:04:01;;;;;;;4.13;2.70;;;9.00;99.90;;;;;;5104367;27;20029;-35
2023/10/16 08:06:30;;;;;;;3.67;2.80;;;9.10;99.90;;;;;;5123065;27;20106;-35
2023/10/16 08:11:42;;;;;;;3.35;2.47;;;9.10;99.90;;;;;;5123857;27;20515;-35
2023/10/16 08:14:09;;;;;;;3.47;2.40;;;9.20;99.90;;;;;;5112809;27;20086;-35
2023/10/16 08:16:35;;;;;;;2.47;2.28;;;9.30;99.90;;;;;;5113267;27;20018;-36
2023/10/16 08:19:00;;;;;;;3.10;2.80;;;9.40;99.90;;;;;;5124715;27;20025;-35
2023/10/16 08:21:26;;;;;;;2.97;2.30;;;9.40;99.90;;;;;;5099707;27;20105;-35
2023/10/16 08:23:56;;;;;;;2.85;2.58;;;9.50;99.90;;;;;;5138045;27;20034;-34
2023/10/16 08:26:28;;;;;;;4.03;3.30;;;9.60;99.90;;;;;;5077419;27;20015;-36
2023/10/16 08:29:17;;;;;;;3.33;2.67;;;9.70;99.90;;;;;;5138094;27;20559;-36
2023/10/16 08:31:45;;;;;;;4.32;3.63;;;9.80;99.90;;;;;;5087026;27;20107;-35
2023/10/16 08:34:13;;;;;;;4.68;3.72;;;9.90;99.90;;;;;;5137575;27;20031;-36
2023/10/16 08:36:38;;;;;;;4.25;3.35;;;9.90;99.90;;;;;;5086155;27;20042;-35
2023/10/16 08:39:16;;;;;;;2.90;2.60;;;10.00;99.90;;;;;;5137145;27;20039;-35
2023/10/16 08:42:01;;;;;;;3.22;2.92;;;10.00;99.90;;;;;;5086183;27;20022;-37
2023/10/16 08:44:28;;;;;;;4.03;2.83;;;10.10;99.90;;;;;;5138130;27;20025;-37
2023/10/16 08:49:24;;;;;;;2.78;2.05;;;10.20;99.90;;;;;;5140722;27;20039;-36
2023/10/16 08:52:09;;;;;;;3.10;2.30;;;10.20;99.90;;;;;;5090060;27;20038;-37
2023/10/16 08:55:00;;;;;;;3.42;2.30;;;10.30;99.90;;;;;;5141193;27;20035;-36
2023/10/16 08:57:26;;;;;;;2.17;1.80;;;10.40;99.90;;;;;;5058264;27;20456;-37
2023/10/16 08:59:52;;;;;;;2.75;1.88;;;10.40;99.90;;;;;;5050145;27;20019;-36
2023/10/16 09:02:24;;;;;;;3.45;2.58;;;10.50;99.90;;;;;;5102054;27;20108;-35
2023/10/16 09:05:02;;;;;;;2.60;2.00;;;10.50;99.90;;;;;;5051172;27;20422;-35
2023/10/16 09:07:28;;;;;;;2.45;2.17;;;10.50;99.90;;;;;;5102111;27;20120;-36
2023/10/16 09:09:53;;;;;;;3.53;2.40;;;10.50;99.90;;;;;;5045770;27;20554;-36
2023/10/16 09:12:28;;;;;;;3.05;2.22;;;10.50;99.90;;;;;;5107237;27;20024;-36
2023/10/16 09:15:09;;;;;;;2.45;1.85;;;10.50;99.90;;;;;;5043576;28;20399;-36
2023/10/16 09:17:35;;;;;;;4.78;2.13;;;10.60;99.90;;;;;;5088662;27;20030;-37
2023/10/16 09:20:13;;;;;;;3.30;1.80;;;10.70;99.90;;;;;;5148479;27;20069;-37
2023/10/16 09:22:44;;;;;;;2.45;1.92;;;10.80;99.90;;;;;;5082751;27;20022;-36
2023/10/16 09:25:15;;;;;;;3.30;2.13;;;10.90;99.90;;;;;;5148042;27;20014;-36
2023/10/16 09:27:42;;;;;;;2.67;2.10;;;11.00;99.90;;;;;;5081468;27;20145;-36
2023/10/16 09:30:17;;;;;;;2.72;1.73;;;11.10;99.90;;;;;;5148472;27;20034;-38
2023/10/16 09:32:43;;;;;;;2.60;1.80;;;11.20;99.90;;;;;;5082890;27;20028;-36
2023/10/16 09:35:12;;;;;;;2.53;1.58;;;11.30;99.90;;;;;;5148049;27;20023;-37
2023/10/16 09:37:38;;;;;;;2.88;1.90;;;11.40;99.90;;;;;;5084947;27;20085;-37
2023/10/16 09:40:35;;;;;;;2.47;1.77;;;11.40;99.90;;;;;;5146871;27;20023;-36
2023/10/16 09:43:08;;;;;;;3.05;1.77;;;11.40;99.90;;;;;;5080417;27;20502;-36
2023/10/16 09:45:35;;;;;;;3.60;1.70;;;11.40;99.90;;;;;;5148450;27;20050;-37
2023/10/16 09:48:07;;;;;;;2.05;1.52;;;11.50;99.90;;;;;;5082300;27;20033;-36
2023/10/16 09:50:42;;;;;;;;;;;11.60;99.90;;;;;;5023905;28;20102;-37
2023/10/16 09:53:17;;;;;;;1.83;1.33;;;11.60;99.90;;;;;;5102947;27;19903;-36
2023/10/16 09:55:44;;;;;;;3.08;1.40;;;11.70;99.90;;;;;;5023300;28;20026;-37
2023/10/16 09:58:11;;;;;;;1.55;1.27;;;11.80;99.90;;;;;;5056408;27;20483;-36
2023/10/16 10:00:46;;;;;;;2.78;1.15;;;11.80;99.90;;;;;;5144412;27;20095;-38
2023/10/16 10:03:14;;;;;;;2.20;1.30;;;11.80;99.90;;;;;;5095427;27;20032;-37
2023/10/16 10:05:49;;;;;;;1.30;1.10;;;11.90;99.90;;;;;;5135131;27;20233;-35
2023/10/16 10:08:27;;;;;;;0.80;0.80;;;12.00;99.90;;;;;;5100988;27;20028;-36
2023/10/16 10:11:23;;;;;;;1.83;1.10;;;12.00;99.90;;;;;;5136788;27;20611;-37
2023/10/16 10:16:49;;;;;;;1.10;1.00;;;12.20;99.90;;;;;;5025237;28;20428;-37
2023/10/16 10:19:46;;;;;;;1.02;0.75;;;12.10;99.90;;;;;;5106133;27;20803;-37
2023/10/16 10:22:18;;;;;;;2.17;1.00;;;12.10;99.90;;;;;;5041741;28;20048;-36
2023/10/16 10:24:51;;;;;;;1.55;1.10;;;12.20;99.90;;;;;;5082299;27;20026;-37
2023/10/16 10:27:17;;;;;;;;;;;12.20;99.90;;;;;;5147348;27;20126;-39
2023/10/16 10:29:48;;;;;;;1.30;0.98;;;12.10;99.90;;;;;;5081023;27;19920;-36
2023/10/16 10:32:21;;;;;;;1.27;0.88;;;12.20;99.90;;;;;;5146536;27;20019;-36
2023/10/16 10:35:07;;;;;;;1.10;0.75;;;12.20;99.90;;;;;;5080858;27;20057;-36
2023/10/16 10:37:45;;;;;;;1.85;1.00;;;12.20;99.90;;;;;;5145992;27;20744;-36
2023/10/16 10:40:26;;;;;;;1.85;1.00;;;12.10;99.90;;;;;;5081192;27;20023;-36
2023/10/16 10:42:54;;;;;;;2.20;1.13;;;12.10;99.90;;;;;;5146849;27;20067;-36
2023/10/16 10:45:39;;;;;;;2.08;1.10;;;12.10;99.90;;;;;;5080153;27;20547;-36
2023/10/16 10:48:09;;;;;;;2.35;1.08;;;12.20;99.90;;;;;;5145777;27;20038;-36
2023/10/16 10:50:38;;;;;;;1.40;0.80;;;12.20;99.90;;;;;;5081581;27;20023;-37
2023/10/16 10:53:13;;;;;;;1.90;0.88;;;12.30;99.90;;;;;;5145291;27;20023;-37
2023/10/16 10:55:58;;;;;;;1.80;0.90;;;12.30;99.90;;;;;;5080367;27;20048;-36
2023/10/16 10:58:31;;;;;;;2.22;1.13;;;12.40;99.90;;;;;;5086774;27;20025;-36
2023/10/16 11:03:45;;;;;;;1.10;0.85;;;12.40;99.90;;;;;;5144142;27;20099;-36
2023/10/16 11:06:18;;;;;;;1.58;0.70;;;12.50;99.90;;;;;;5084696;27;20847;-35
2023/10/16 11:08:50;;;;;;;0.90;0.77;;;12.50;99.90;;;;;;5146852;27;20130;-36
2023/10/16 11:11:16;;;;;;;2.20;0.80;;;12.50;99.90;;;;;;5105643;27;20021;-36
2023/10/16 11:13:49;;;;;;;2.53;0.60;;;12.50;99.90;;;;;;5041860;28;20282;-36
2023/10/16 11:16:15;;;;;;;0.95;0.60;;;12.50;99.90;;;;;;5107213;27;20022;-35
2023/10/16 11:18:57;;;;;;;1.17;0.63;;;12.50;99.90;;;;;;5042178;28;20032;-37
2023/10/16 11:21:25;;;;;;;0.77;0.52;;;12.60;99.90;;;;;;5106662;27;20027;-38
2023/10/16 11:23:55;;;;;;;2.13;0.70;;;12.60;99.90;;;;;;5041797;28;20057;-37
2023/10/16 11:26:26;;;;;;;1.13;0.63;;;12.60;99.90;;;;;;5106454;27;20019;-37
2023/10/16 11:28:54;;;;;;;2.05;0.60;;;12.70;99.90;;;;;;5040497;28;20048;-36
2023/10/16 11:31:21;;;;;;;1.10;0.47;;;12.70;99.90;;;;;;5100459;27;20023;-37
2023/10/16 11:34:00;;;;;;;1.70;0.73;;;12.70;99.90;;;;;;5045700;27;20513;-36
2023/10/16 11:36:28;;;;;;;1.60;0.80;;;12.80;99.90;;;;;;5097831;27;20091;-37
2023/10/16 11:38:59;;;;;;;1.63;0.60;;;12.90;99.90;;;;;;5048856;27;20025;-36
2023/10/16 11:41:26;;;;;;;1.45;0.50;;;12.90;99.90;;;;;;5089444;27;20029;-37
2023/10/16 11:43:53;;;;;;;1.05;0.55;;;12.90;99.90;;;;;;5056403;27;20585;-36
2023/10/16 11:46:29;;;;;;;0.40;0.40;;;13.00;99.90;;;;;;5077772;27;20046;-37
2023/10/16 11:51:38;;;;;;;1.05;0.40;;;13.10;99.90;;;;;;5084424;27;20434;-36
2023/10/16 11:54:03;;;;;;;1.13;0.50;;;13.10;99.90;;;;;;5062980;27;20072;-36
2023/10/16 11:56:34;;;;;;;1.38;0.55;;;13.20;99.90;;;;;;5069868;27;20043;-35
2023/10/16 11:59:00;;;;;;;1.27;0.60;;;13.20;99.90;;;;;;5062763;27;20472;-37
2023/10/16 12:01:28;;;;;;;1.38;0.63;;;13.20;99.90;;;;;;5061227;27;20053;-36
2023/10/16 12:03:55;;;;;;;1.88;0.70;;;13.30;99.90;;;;;;5084332;27;20801;-36
2023/10/16 12:06:23;;;;;;;2.22;0.60;;;13.30;99.90;;;;;;5063053;27;20089;-37
2023/10/16 12:08:49;;;;;;;2.08;0.80;;;13.30;99.90;;;;;;5090785;27;20091;-36
2023/10/16 12:11:14;;;;;;;1.48;0.70;;;13.30;99.90;;;;;;5137222;27;20388;-36
2023/10/16 12:13:43;;;;;;;2.33;0.60;;;13.40;99.90;;;;;;5086870;27;20026;-37
2023/10/16 12:16:08;;;;;;;0.52;0.47;;;13.40;99.90;;;;;;5140571;27;20019;-36
2023/10/16 12:18:34;;;;;;;2.88;0.65;;;13.40;99.90;;;;;;5083913;27;20038;-35
2023/10/16 12:21:05;;;;;;;2.08;1.00;;;13.40;99.90;;;;;;5144152;27;20053;-38
2023/10/16 12:23:36;;;;;;;1.85;0.60;;;13.40;99.90;;;;;;5080978;27;20130;-36
2023/10/16 12:26:03;;;;;;;2.40;0.63;;;13.30;99.90;;;;;;5149083;27;20083;-36
2023/10/16 12:28:30;;;;;;;2.00;0.55;;;13.40;99.90;;;;;;5083028;27;20054;-36
2023/10/16 12:30:57;;;;;;;2.40;0.60;;;13.40;99.90;;;;;;5149077;27;20106;-35
2023/10/16 12:33:25;;;;;;;1.83;0.50;;;13.40;99.90;;;;;;5088953;27;20888;-36
2023/10/16 12:36:01;;;;;;;2.60;0.65;;;13.40;99.90;;;;;;5145448;27;20130;-36
2023/10/16 12:38:27;;;;;;;0.82;0.50;;;13.40;99.90;;;;;;5093263;27;20100;-36
2023/10/16 12:40:54;;;;;;;1.27;0.70;;;13.40;99.90;;;;;;5139503;27;20218;-37
2023/10/16 12:43:20;;;;;;;1.23;0.68;;;13.40;99.90;;;;;;5106613;27;20579;-37
2023/10/16 12:45:47;;;;;;;1.38;0.50;;;13.40;99.90;;;;;;5125599;27;20191;-35
2023/10/16 12:48:14;;;;;;;1.95;0.80;;;13.40;99.90;;;;;;5118578;27;20105;-36
2023/10/16 12:50:39;;;;;;;0.68;0.60;;;13.40;99.90;;;;;;5114036;27;20109;-35
2023/10/16 12:53:05;;;;;;;0.88;0.52;;;13.40;99.90;;;;;;5131283;27;20114;-36
2023/10/16 12:55:31;;;;;;;1.05;0.80;;;13.50;99.90;;;;;;5101267;27;20019;-37
2023/10/16 12:57:57;;;;;;;1.33;0.85;;;13.50;99.90;;;;;;5122615;27;20466;-38
2023/10/16 13:00:23;;;;;;;1.15;0.70;;;13.50;99.90;;;;;;5101615;27;20029;-37
2023/10/16 13:02:51;;;;;;;1.02;0.70;;;13.50;99.90;;;;;;5051319;27;20029;-37
2023/10/16 13:05:17;;;;;;;0.47;0.47;;;13.60;99.90;;;;;;5101858;27;20090;-36
2023/10/16 13:07:43;;;;;;;1.98;0.70;;;13.60;99.90;;;;;;5043243;28;20524;-35
2023/10/16 13:10:20;;;;;;;2.58;0.73;;;13.70;99.90;;;;;;5081869;27;20037;-36
2023/10/16 13:12:47;;;;;;;1.38;0.50;;;13.70;99.90;;;;;;5148035;27;20011;-37
2023/10/16 13:15:24;;;;;;;1.95;1.00;;;13.70;99.90;;;;;;5082349;27;20037;-36
2023/10/16 13:17:50;;;;;;;2.13;0.50;;;13.70;99.90;;;;;;5148795;27;20019;-36
2023/10/16 13:20:19;;;;;;;0.70;0.50;;;13.80;99.90;;;;;;5112529;27;20029;-37
2023/10/16 13:22:49;;;;;;;0.93;0.45;;;13.70;99.90;;;;;;5044154;28;20027;-37
2023/10/16 13:25:16;;;;;;;1.35;0.50;;;13.70;99.90;;;;;;5108231;27;20033;-36
2023/10/16 13:27:44;;;;;;;0.93;0.38;;;13.70;99.90;;;;;;5023231;28;20041;-36
2023/10/16 13:30:11;;;;;;;0.50;0.43;;;13.70;99.90;;;;;;5091522;27;20785;-37
2023/10/16 13:32:41;;;;;;;0.80;0.47;;;13.60;99.90;;;;;;5053550;27;20029;-36
2023/10/16 13:35:12;;;;;;;2.10;1.00;;;13.60;99.90;;;;;;5086022;27;20044;-37
2023/10/16 13:37:44;;;;;;;0.65;0.50;;;13.60;99.90;;;;;;5059440;27;20049;-36
2023/10/16 13:40:20;;;;;;;1.27;0.50;;;13.60;99.90;;;;;;5082444;27;20022;-36
2023/10/16 13:42:51;;;;;;;1.52;0.50;;;13.60;99.90;;;;;;5060711;27;20033;-36
2023/10/16 13:45:18;;;;;;;2.00;0.60;;;13.70;99.90;;;;;;5049352;27;20029;-35
2023/10/16 13:47:45;;;;;;;4.18;0.90;;;13.70;99.90;;;;;;5120041;27;20482;-36
2023/10/16 13:50:16;;;;;;;1.73;0.50;;;13.70;99.90;;;;;;5122232;27;20074;-37
2023/10/16 13:52:43;;;;;;;2.20;0.63;;;13.70;99.90;;;;;;5112066;27;20022;-36
2023/10/16 13:55:13;;;;;;;1.45;0.50;;;13.70;99.90;;;;;;5129976;27;20019;-36
2023/10/16 13:57:43;;;;;;;1.50;0.40;;;13.70;99.90;;;;;;5084871;27;20115;-36
2023/10/16 14:03:16;;;;;;;1.35;0.60;;;13.70;99.90;;;;;;5083652;27;20036;-36
2023/10/16 14:05:46;;;;;;;0.93;0.80;;;13.80;99.90;;;;;;5068166;27;20030;-36
2023/10/16 14:08:17;;;;;;;2.35;0.90;;;13.80;99.90;;;;;;5079846;27;20078;-37
2023/10/16 14:10:49;;;;;;;2.25;0.65;;;13.80;99.90;;;;;;5059964;27;20435;-38
2023/10/16 14:13:27;;;;;;;1.25;0.82;;;13.80;99.90;;;;;;5085626;27;20025;-36
2023/10/16 14:16:01;;;;;;;2.22;0.60;;;13.80;99.90;;;;;;5059899;27;20866;-36
2023/10/16 14:18:34;;;;;;;2.45;0.70;;;13.70;99.90;;;;;;5081068;27;20064;-37
2023/10/16 14:21:08;;;;;;;1.48;0.63;;;13.70;99.90;;;;;;5057991;27;20073;-37
2023/10/16 14:23:34;;;;;;;2.88;0.70;;;13.70;99.90;;;;;;5085487;27;20033;-36
2023/10/16 14:26:00;;;;;;;1.55;0.70;;;13.70;99.90;;;;;;5049621;27;20423;-41
2023/10/16 14:28:33;;;;;;;0.93;0.50;;;13.70;99.90;;;;;;5099949;27;20707;-35
2023/10/16 14:31:12;;;;;;;1.45;0.60;;;13.70;99.90;;;;;;5049095;27;20040;-35
2023/10/16 14:33:39;;;;;;;1.55;0.50;;;13.70;99.90;;;;;;5080346;27;20050;-35
2023/10/16 14:36:09;;;;;;;1.50;0.60;;;13.70;99.90;;;;;;5139178;27;20480;-37
2023/10/16 14:38:37;;;;;;;1.42;0.90;;;13.70;99.90;;;;;;5088326;27;20026;-36
2023/10/16 14:41:09;;;;;;;2.08;0.90;;;13.70;99.90;;;;;;5139155;27;20106;-38